This is the latest recevied weather packets stored in our database for station/object KK4PWJ-13. If no packets are shown the sender has not sent any weather packets the latest 1 day(s).
| Time | Temp. | Humidity | Pressure | Rain* | Wind** | Luminosity | Snow |
|---|---|---|---|---|---|---|---|
| 1778098899 | 21.11° C | 83% | 1009.8 hPa | 0 mm | - | 178 W/m² | - |
| 1778098293 | 20.56° C | 84% | 1009.5 hPa | 0 mm | - | 213 W/m² | - |
| 1778097383 | 20.56° C | 88% | 1009.7 hPa | 0 mm | - | 209 W/m² | - |
| 1778094957 | 18.89° C | 92% | 1010.2 hPa | 0 mm | - | 169 W/m² | - |
| 1778093745 | 18.89° C | 91% | 1010.6 hPa | 1.27 mm | - | 81 W/m² | - |
| 1778093139 | 18.89° C | 88% | 1011.4 hPa | 0 mm | - | 64 W/m² | - |
| 1778092836 | 19.44° C | 87% | 1012 hPa | 1.78 mm | - | 78 W/m² | - |
| 1778091623 | 21.11° C | 76% | 1012.4 hPa | 0 mm | - | 71 W/m² | - |
| 1778091321 | 21.67° C | 70% | 1012.5 hPa | 0 mm | - | 59 W/m² | - |
| 1778090714 | 22.22° C | 69% | 1012.2 hPa | 0 mm | - | 104 W/m² | - |
| 1778089198 | 21.67° C | 72% | 1012 hPa | 0 mm | - | 154 W/m² | - |
| 1778088896 | 21.67° C | 71% | 1012 hPa | 0 mm | - | 155 W/m² | - |
| 1778088290 | 21.67° C | 74% | 1011.9 hPa | 0 mm | - | 217 W/m² | - |
| 1778087986 | 21.11° C | 73% | 1012 hPa | 0 mm | - | 255 W/m² | - |
| 1778080195 | 18.89° C | 75% | 1012.5 hPa | 0 mm | - | 102 W/m² | - |
| 1778079588 | 18.89° C | 74% | 1012.3 hPa | 0 mm | - | 60 W/m² | - |
| 1778079284 | 18.89° C | 76% | 1012.3 hPa | 0 mm | - | 68 W/m² | - |
| 1778078982 | 18.89° C | 75% | 1012.4 hPa | 0 mm | - | 86 W/m² | - |
| 1778078678 | 18.89° C | 73% | 1012.2 hPa | 0 mm | - | 83 W/m² | - |
| 1778078377 | 18.89° C | 73% | 1012.2 hPa | 0 mm | - | 76 W/m² | - |
| 1778077772 | 18.89° C | 74% | 1011.9 hPa | 0 mm | - | 100 W/m² | - |
| 1778077167 | 18.89° C | 74% | 1011.7 hPa | 0 mm | - | 110 W/m² | - |
| 1778076865 | 18.89° C | 74% | 1011.6 hPa | 0 mm | - | 91 W/m² | - |
| 1778075654 | 18.33° C | 74% | 1012 hPa | 0 mm | - | 98 W/m² | - |
| 1778074136 | 17.78° C | 74% | 1012.4 hPa | 0 mm | - | 86 W/m² | - |
* Rain latest hour (hover to see other rain measurements)
** Current wind speed in m/s (hover to see current wind gust speed)